Terminal Aerodrome Forecast
Issued by NWS Twin Cities, MN

Home | Current Version | Previous Version | Text Only | Print | Product List | Glossary Off
Versions: 1 2 3 4 5 6 7 8 9 10 11 12 13 14 15 16 17 18 19 20 21 22 23 24 25 26 27 28 29 30

921
FTUS43 KMPX 212015 AAA
TAFMSP
TAF AMD
KMSP 212015Z 2120/2224 36015KT P6SM SKC
     FM220000 01011KT P6SM SKC
     FM220600 04006KT P6SM FEW250
     FM221400 12007KT P6SM SCT250
     FM222100 14009KT P6SM BKN250=

USA.gov is the U.S. government's official web portal to all federal, state and local government web resources and services.